Rollo, Illinois
Current Conditions -  °F | °C
As of 11:15 AM on Thursday 30 Oct 2014 (Local Time) from KVYS Reporting Station
Broken Clouds Broken Clouds  
Wind Chill:   Ceiling: 10000
Heat Index:   Visibility: 10mi
Dew Point:   Wind: 7mph
Humidity: 68%   Direction: 240°WSW
Pressure: 30.13"   Gusts: NA
Location:  41.5869°N, 88.887°W
Report Text: KVYS 301615Z AUTO 24006KT 10SM BKN100 09/03 A3013 RMK AO2 T00850029
Loading
Personal Weather Stations






























Interactive Weather Map
Tropical Storm Tracking
New forecast layout! Learn more

10-Day Weather Forecast

Advertisements
Track Severe Weather on mobile